createdAt,value
2018-05-26T00:00:37.464Z,92.70
2018-05-26T00:03:05.801Z,92.70
2018-05-26T00:05:34.121Z,92.80
2018-05-26T00:08:02.475Z,92.70
2018-05-26T00:10:30.819Z,92.70
2018-05-26T00:12:59.149Z,92.80
2018-05-26T00:15:27.486Z,92.80
2018-05-26T00:17:55.801Z,92.70
2018-05-26T00:20:24.143Z,92.70
2018-05-26T00:22:58.279Z,92.70
2018-05-26T00:25:26.652Z,92.80
2018-05-26T00:27:54.961Z,92.70
2018-05-26T00:30:23.294Z,92.70
2018-05-26T00:32:51.618Z,92.70
2018-05-26T00:35:19.962Z,92.70
2018-05-26T00:37:48.285Z,92.70
2018-05-26T00:40:16.627Z,92.70
2018-05-26T00:42:44.956Z,92.70
2018-05-26T00:45:13.317Z,92.70
2018-05-26T00:47:41.642Z,92.70
2018-05-26T00:50:09.962Z,92.70
2018-05-26T00:52:38.318Z,92.70
2018-05-26T00:55:06.648Z,92.80
2018-05-26T00:57:34.991Z,92.60
2018-05-26T01:00:03.314Z,92.60
2018-05-26T01:02:31.668Z,92.60
2018-05-26T01:04:59.990Z,92.60
2018-05-26T01:07:28.331Z,92.60
2018-05-26T01:09:56.666Z,92.70
2018-05-26T01:12:25.010Z,92.80
2018-05-26T01:14:53.334Z,92.90
2018-05-26T01:17:21.675Z,93.00
2018-05-26T01:19:50.000Z,93.40
2018-05-26T01:22:18.353Z,93.10
2018-05-26T01:24:46.670Z,93.00
2018-05-26T01:27:14.989Z,93.00
2018-05-26T01:29:43.334Z,93.00
2018-05-26T01:32:11.650Z,92.90
2018-05-26T01:34:39.998Z,92.90
2018-05-26T01:37:08.317Z,92.90
2018-05-26T01:39:36.665Z,92.80
2018-05-26T01:42:04.988Z,92.90
2018-05-26T01:44:33.338Z,93.00
2018-05-26T01:47:01.662Z,93.00
2018-05-26T01:49:30.014Z,93.00
2018-05-26T01:51:58.339Z,93.00
2018-05-26T01:54:26.669Z,93.10
2018-05-26T01:56:54.995Z,93.10
2018-05-26T01:59:23.354Z,93.10
2018-05-26T02:01:51.674Z,93.00
2018-05-26T02:04:19.988Z,93.00
2018-05-26T02:06:48.328Z,93.30
2018-05-26T02:09:16.653Z,93.00
2018-05-26T02:11:44.990Z,93.00
2018-05-26T02:14:13.309Z,93.10
2018-05-26T02:16:41.662Z,93.10
2018-05-26T02:19:09.983Z,93.10
2018-05-26T02:21:38.322Z,93.50
2018-05-26T02:24:06.647Z,93.10
2018-05-26T02:26:34.992Z,93.00
2018-05-26T02:29:03.315Z,93.10
2018-05-26T02:31:31.664Z,93.20
2018-05-26T02:33:59.994Z,93.10
2018-05-26T02:36:28.363Z,93.00
2018-05-26T02:38:56.685Z,93.00
2018-05-26T02:41:25.010Z,93.00
2018-05-26T02:43:53.356Z,93.10
2018-05-26T02:46:21.674Z,93.10
2018-05-26T02:48:50.016Z,93.10
2018-05-26T02:51:18.341Z,93.10
2018-05-26T02:53:46.716Z,93.10
2018-05-26T02:56:15.032Z,93.10
2018-05-26T02:58:43.382Z,93.10
2018-05-26T03:01:11.700Z,93.10
2018-05-26T03:03:40.049Z,93.20
2018-05-26T03:06:13.922Z,93.20
2018-05-26T03:08:47.960Z,93.20
2018-05-26T03:11:22.006Z,93.30
2018-05-26T03:13:55.234Z,93.30
2018-05-26T03:16:24.558Z,93.20
2018-05-26T03:18:52.913Z,93.10
2018-05-26T03:21:21.235Z,93.40
2018-05-26T03:23:49.584Z,93.30
2018-05-26T03:26:17.914Z,93.20
2018-05-26T03:28:46.263Z,93.40
2018-05-26T03:31:14.588Z,93.30
2018-05-26T03:33:42.924Z,93.30
2018-05-26T03:36:11.296Z,93.30
2018-05-26T03:38:39.613Z,93.10
2018-05-26T03:41:07.957Z,93.10
2018-05-26T03:43:36.294Z,93.50
2018-05-26T03:46:04.640Z,93.20
2018-05-26T03:48:32.972Z,93.30
2018-05-26T03:51:01.311Z,93.30
2018-05-26T03:53:29.642Z,93.30
2018-05-26T03:56:09.757Z,93.30
2018-05-26T03:58:49.855Z,93.20
2018-05-26T04:01:18.219Z,93.30
2018-05-26T04:03:46.566Z,93.10
2018-05-26T04:06:14.905Z,93.10
2018-05-26T04:08:43.221Z,92.80
2018-05-26T04:11:11.567Z,92.40
2018-05-26T04:13:39.885Z,92.30
2018-05-26T04:16:08.207Z,92.10
2018-05-26T04:18:36.546Z,91.80
2018-05-26T04:21:04.865Z,91.60
2018-05-26T04:23:33.210Z,91.40
2018-05-26T04:26:01.532Z,91.40
2018-05-26T04:28:29.877Z,91.20
2018-05-26T04:30:58.196Z,91.10
2018-05-26T04:33:26.548Z,91.00
2018-05-26T04:35:54.865Z,90.90
2018-05-26T04:38:23.189Z,91.00
2018-05-26T04:40:51.525Z,90.50
2018-05-26T04:43:19.849Z,88.20
2018-05-26T04:45:48.200Z,85.40
2018-05-26T04:48:15.749Z,85.40
2018-05-26T04:50:44.093Z,78.80
2018-05-26T04:53:12.415Z,74.80
2018-05-26T04:55:40.753Z,72.70
2018-05-26T04:58:09.070Z,71.20
2018-05-26T05:00:37.419Z,69.70
2018-05-26T05:03:05.746Z,68.80
2018-05-26T05:05:34.114Z,68.00
2018-05-26T05:08:02.430Z,66.60
2018-05-26T05:10:30.751Z,65.50
2018-05-26T05:12:59.090Z,65.20
2018-05-26T05:15:27.410Z,66.10
2018-05-26T05:17:55.779Z,66.40
2018-05-26T05:20:24.098Z,67.30
2018-05-26T05:22:52.437Z,67.80
2018-05-26T05:25:20.757Z,68.10
2018-05-26T05:27:49.093Z,68.30
2018-05-26T05:30:17.418Z,68.40
2018-05-26T05:32:45.761Z,68.50
2018-05-26T05:35:14.077Z,68.70
2018-05-26T05:37:42.423Z,68.70
2018-05-26T05:40:10.739Z,69.00
2018-05-26T05:42:39.098Z,69.70
2018-05-26T05:45:07.418Z,70.30
2018-05-26T05:47:35.766Z,70.50
2018-05-26T05:50:03.320Z,70.30
2018-05-26T05:52:31.664Z,70.30
2018-05-26T05:54:59.977Z,69.90
2018-05-26T05:57:28.319Z,69.50
2018-05-26T05:59:56.636Z,69.20
2018-05-26T06:02:24.964Z,68.70
2018-05-26T06:04:53.328Z,68.30
2018-05-26T06:07:21.669Z,68.20
2018-05-26T06:09:50.006Z,67.80
2018-05-26T06:12:18.317Z,68.00
2018-05-26T06:14:46.661Z,68.10
2018-05-26T06:17:14.987Z,68.00
2018-05-26T06:19:43.321Z,68.00
2018-05-26T06:22:11.629Z,68.60
2018-05-26T06:24:39.972Z,69.40
2018-05-26T06:27:08.299Z,70.80
2018-05-26T06:29:36.649Z,70.50
2018-05-26T06:32:04.971Z,70.40
2018-05-26T06:34:33.310Z,70.10
2018-05-26T06:37:01.634Z,69.60
2018-05-26T06:39:29.971Z,69.20
2018-05-26T06:41:58.298Z,68.50
2018-05-26T06:44:26.678Z,68.00
2018-05-26T06:46:55.440Z,67.80
2018-05-26T06:49:23.798Z,67.60
2018-05-26T06:51:52.146Z,67.20
2018-05-26T06:54:20.491Z,67.00
2018-05-26T06:56:48.822Z,66.70
2018-05-26T06:59:17.172Z,66.20
2018-05-26T07:01:45.501Z,65.50
2018-05-26T07:04:13.841Z,65.00
2018-05-26T07:06:42.151Z,65.00
2018-05-26T07:09:10.486Z,64.80
2018-05-26T07:11:38.806Z,64.50
2018-05-26T07:14:07.162Z,64.80
2018-05-26T07:16:35.487Z,64.40
2018-05-26T07:19:03.837Z,64.10
2018-05-26T07:21:32.163Z,63.30
2018-05-26T07:24:00.504Z,62.50
2018-05-26T07:26:28.827Z,61.70
2018-05-26T07:28:57.165Z,61.30
2018-05-26T07:31:25.483Z,60.80
2018-05-26T07:33:53.047Z,60.80
2018-05-26T07:36:21.365Z,58.40
2018-05-26T07:38:48.946Z,58.40
2018-05-26T07:41:17.266Z,58.90
2018-05-26T07:43:44.819Z,58.80
2018-05-26T07:46:13.151Z,57.50
2018-05-26T07:48:41.470Z,55.80
2018-05-26T07:51:09.851Z,55.50
2018-05-26T07:53:38.162Z,55.30
2018-05-26T07:56:06.501Z,55.60
2018-05-26T07:58:34.867Z,55.70
2018-05-26T08:01:03.198Z,55.00
2018-05-26T08:03:31.514Z,53.70
2018-05-26T08:05:59.850Z,53.10
2018-05-26T08:08:28.165Z,52.30
2018-05-26T08:10:56.534Z,52.10
2018-05-26T08:13:24.839Z,52.20
2018-05-26T08:15:53.172Z,52.70
2018-05-26T08:18:21.502Z,52.50
2018-05-26T08:20:49.842Z,52.80
2018-05-26T08:23:18.176Z,53.30
2018-05-26T08:25:46.505Z,51.50
2018-05-26T08:28:14.048Z,51.50
2018-05-26T08:30:42.394Z,50.20
2018-05-26T08:33:10.705Z,49.80
2018-05-26T08:35:39.033Z,49.60
2018-05-26T08:38:07.347Z,49.30
2018-05-26T08:40:35.686Z,49.80
2018-05-26T08:43:03.997Z,50.00
2018-05-26T08:45:32.386Z,49.30
2018-05-26T08:47:59.906Z,49.30
2018-05-26T08:50:28.242Z,48.70
2018-05-26T08:52:56.555Z,48.80
2018-05-26T08:55:24.890Z,47.90
2018-05-26T08:57:53.202Z,47.50
2018-05-26T09:00:21.543Z,48.00
2018-05-26T09:02:49.866Z,47.80
2018-05-26T09:05:18.219Z,46.80
2018-05-26T09:07:46.534Z,46.80
2018-05-26T09:10:14.865Z,46.80
2018-05-26T09:12:43.183Z,46.90
2018-05-26T09:15:11.526Z,46.80
2018-05-26T09:17:39.838Z,46.00
2018-05-26T09:20:08.160Z,44.90
2018-05-26T09:22:36.506Z,45.30
2018-05-26T09:25:04.840Z,46.00
2018-05-26T09:27:33.182Z,45.80
2018-05-26T09:30:01.495Z,45.50
2018-05-26T09:32:29.857Z,45.00
2018-05-26T09:34:58.174Z,45.50
2018-05-26T09:37:26.507Z,44.90
2018-05-26T09:39:54.830Z,45.10
2018-05-26T09:42:22.624Z,45.00
2018-05-26T09:44:50.951Z,45.40
2018-05-26T09:47:19.309Z,45.50
2018-05-26T09:49:47.621Z,44.90
2018-05-26T09:52:15.969Z,44.90
2018-05-26T09:54:44.287Z,44.30
2018-05-26T09:57:12.633Z,43.80
2018-05-26T09:59:40.945Z,43.40
2018-05-26T10:02:09.282Z,43.60
2018-05-26T10:04:37.598Z,43.00
2018-05-26T10:07:05.944Z,43.40
2018-05-26T10:09:34.257Z,43.70
2018-05-26T10:12:02.614Z,44.20
2018-05-26T10:14:30.933Z,44.80
2018-05-26T10:16:59.274Z,44.60
2018-05-26T10:19:27.604Z,43.50
2018-05-26T10:21:55.945Z,43.30
2018-05-26T10:24:24.262Z,43.40
2018-05-26T10:26:52.597Z,43.00
2018-05-26T10:29:20.921Z,43.30
2018-05-26T10:31:49.289Z,43.10
2018-05-26T10:34:17.632Z,42.50
2018-05-26T10:36:45.990Z,42.80
2018-05-26T10:39:14.322Z,42.50
2018-05-26T10:41:42.657Z,41.70
2018-05-26T10:44:11.037Z,41.80
2018-05-26T10:46:39.380Z,41.10
2018-05-26T10:49:07.694Z,41.50
2018-05-26T10:51:36.042Z,41.90
2018-05-26T10:54:04.372Z,41.60
2018-05-26T10:56:32.726Z,40.10
2018-05-26T10:59:01.091Z,40.70
2018-05-26T11:01:29.413Z,41.90
2018-05-26T11:03:57.752Z,41.70
2018-05-26T11:06:26.070Z,40.40
2018-05-26T11:08:54.420Z,40.40
2018-05-26T11:11:22.750Z,40.50
2018-05-26T11:13:51.092Z,40.40
2018-05-26T11:16:19.480Z,41.00
2018-05-26T11:18:47.006Z,41.00
2018-05-26T11:21:15.326Z,40.60
2018-05-26T11:23:43.678Z,39.40
2018-05-26T11:26:12.133Z,40.20
2018-05-26T11:28:40.371Z,39.60
2018-05-26T11:31:08.745Z,39.10
2018-05-26T11:33:36.273Z,39.10
2018-05-26T11:36:04.597Z,39.10
2018-05-26T11:38:32.984Z,38.80
2018-05-26T11:41:01.294Z,39.20
2018-05-26T11:43:29.655Z,38.30
2018-05-26T11:45:57.980Z,38.90
2018-05-26T11:48:26.359Z,40.60
2018-05-26T11:50:54.675Z,40.10
2018-05-26T11:53:23.070Z,38.90
2018-05-26T11:55:51.353Z,38.80
2018-05-26T11:58:19.698Z,38.20
2018-05-26T12:00:48.026Z,38.20
2018-05-26T12:03:16.355Z,37.30
2018-05-26T12:05:44.666Z,37.10
2018-05-26T12:08:12.994Z,37.20
2018-05-26T12:10:41.314Z,38.80
2018-05-26T12:13:09.650Z,39.10
2018-05-26T12:15:37.961Z,38.20
2018-05-26T12:18:06.299Z,38.30
2018-05-26T12:20:34.621Z,39.10
2018-05-26T12:23:02.955Z,37.60
2018-05-26T12:25:31.274Z,38.50
2018-05-26T12:27:59.622Z,39.00
2018-05-26T12:30:27.180Z,39.00
2018-05-26T12:32:55.538Z,38.00
2018-05-26T12:35:23.856Z,37.10
2018-05-26T12:37:52.173Z,36.90
2018-05-26T12:40:20.516Z,35.40
2018-05-26T12:42:48.825Z,36.00
2018-05-26T12:45:17.175Z,36.50
2018-05-26T12:47:45.502Z,36.40
2018-05-26T12:50:13.843Z,36.90
2018-05-26T12:52:41.394Z,37.00
2018-05-26T12:55:09.752Z,35.60
2018-05-26T12:57:38.061Z,35.10
2018-05-26T13:00:06.389Z,34.70
2018-05-26T13:02:33.939Z,34.60
2018-05-26T13:05:02.283Z,35.80
2018-05-26T13:07:30.598Z,35.00
2018-05-26T13:09:58.944Z,34.00
2018-05-26T13:12:27.263Z,34.60
2018-05-26T13:14:55.606Z,34.30
2018-05-26T13:17:23.918Z,34.00
2018-05-26T13:19:52.258Z,33.50
2018-05-26T13:22:19.814Z,33.50
2018-05-26T13:24:48.160Z,33.80
2018-05-26T13:27:16.479Z,34.90
2018-05-26T13:29:44.841Z,32.90
2018-05-26T13:32:13.157Z,32.90
2018-05-26T13:34:40.737Z,32.90
2018-05-26T13:37:09.063Z,33.70
2018-05-26T13:39:37.398Z,32.90
2018-05-26T13:42:05.713Z,33.20
2018-05-26T13:44:34.050Z,34.30
2018-05-26T13:47:02.365Z,33.80
2018-05-26T13:49:30.040Z,33.80
2018-05-26T13:51:58.401Z,33.90
2018-05-26T13:54:26.794Z,33.70
2018-05-26T13:56:55.069Z,34.30
2018-05-26T13:59:23.438Z,34.60
2018-05-26T14:01:51.757Z,34.20
2018-05-26T14:04:20.101Z,33.50
2018-05-26T14:06:48.408Z,33.70
2018-05-26T14:09:16.763Z,34.50
2018-05-26T14:11:45.075Z,35.60
2018-05-26T14:14:13.389Z,34.70
2018-05-26T14:16:41.725Z,35.00
2018-05-26T14:19:10.041Z,35.80
2018-05-26T14:21:38.381Z,36.00
2018-05-26T14:24:06.703Z,36.60
2018-05-26T14:26:35.037Z,36.70
2018-05-26T14:29:03.378Z,37.20
2018-05-26T14:31:31.718Z,38.30
2018-05-26T14:34:00.042Z,38.10
2018-05-26T14:36:28.381Z,37.60
2018-05-26T14:38:56.702Z,38.10
2018-05-26T14:41:25.036Z,38.20
2018-05-26T14:43:53.349Z,38.20
2018-05-26T14:46:21.681Z,38.30
2018-05-26T14:48:50.002Z,38.40
2018-05-26T14:51:18.347Z,39.00
2018-05-26T14:53:46.658Z,39.50
2018-05-26T14:56:14.997Z,39.60
2018-05-26T14:58:43.333Z,40.00
2018-05-26T15:01:11.675Z,40.10
2018-05-26T15:03:39.982Z,39.70
2018-05-26T15:06:08.348Z,39.40
2018-05-26T15:08:36.667Z,38.50
2018-05-26T15:11:05.002Z,39.30
2018-05-26T15:13:33.327Z,39.50
2018-05-26T15:16:01.832Z,39.80
2018-05-26T15:18:30.326Z,39.80
2018-05-26T15:20:58.809Z,40.30
2018-05-26T15:23:27.150Z,40.60
2018-05-26T15:25:55.489Z,40.30
2018-05-26T15:28:23.801Z,40.90
2018-05-26T15:30:52.138Z,40.40
2018-05-26T15:33:20.450Z,40.70
2018-05-26T15:35:48.789Z,41.20
2018-05-26T15:38:16.338Z,41.20
2018-05-26T15:40:43.952Z,41.40
2018-05-26T15:43:12.289Z,41.80
2018-05-26T15:45:40.752Z,42.30
2018-05-26T15:48:09.065Z,42.70
2018-05-26T15:50:37.425Z,43.40
2018-05-26T15:53:05.744Z,44.00
2018-05-26T15:55:34.063Z,44.30
2018-05-26T15:58:02.409Z,44.70
2018-05-26T16:00:30.722Z,45.00
2018-05-26T16:02:59.090Z,44.50
2018-05-26T16:05:27.407Z,44.60
2018-05-26T16:07:55.752Z,44.80
2018-05-26T16:10:24.086Z,44.90
2018-05-26T16:12:52.424Z,45.20
2018-05-26T16:15:20.739Z,45.50
2018-05-26T16:17:49.070Z,46.10
2018-05-26T16:20:17.398Z,46.50
2018-05-26T16:22:45.742Z,46.70
2018-05-26T16:25:14.058Z,46.20
2018-05-26T16:27:42.402Z,46.80
2018-05-26T16:30:10.728Z,46.50
2018-05-26T16:32:39.094Z,46.70
2018-05-26T16:35:07.410Z,46.70
2018-05-26T16:37:35.765Z,47.00
2018-05-26T16:40:04.097Z,47.40
2018-05-26T16:42:32.489Z,47.80
2018-05-26T16:45:00.819Z,48.30
2018-05-26T16:47:29.166Z,48.40
2018-05-26T16:49:57.481Z,49.20
2018-05-26T16:52:25.822Z,49.00
2018-05-26T16:54:54.155Z,49.30
2018-05-26T16:57:22.504Z,49.40
2018-05-26T16:59:50.824Z,49.60
2018-05-26T17:02:19.162Z,49.60
2018-05-26T17:04:46.715Z,49.60
2018-05-26T17:07:15.045Z,49.50
2018-05-26T17:09:42.594Z,49.50
2018-05-26T17:12:10.966Z,49.50
2018-05-26T17:14:39.289Z,49.30
2018-05-26T17:17:07.626Z,49.30
2018-05-26T17:19:35.945Z,49.30
2018-05-26T17:22:04.292Z,48.80
2018-05-26T17:24:32.603Z,49.00
2018-05-26T17:27:01.015Z,48.80
2018-05-26T17:29:29.325Z,48.30
2018-05-26T17:31:57.649Z,48.50
2018-05-26T17:34:25.973Z,48.70
2018-05-26T17:36:54.302Z,48.00
2018-05-26T17:39:22.731Z,47.10
2018-05-26T17:41:51.248Z,45.90
2018-05-26T17:44:20.222Z,43.90
2018-05-26T17:46:48.534Z,42.50
2018-05-26T17:49:17.963Z,40.90
2018-05-26T17:51:46.280Z,39.60
2018-05-26T17:54:16.251Z,39.40
2018-05-26T17:56:44.592Z,39.10
2018-05-26T17:59:13.016Z,38.90
2018-05-26T18:01:41.358Z,40.10
2018-05-26T18:04:09.690Z,40.40
2018-05-26T18:06:38.006Z,41.40
2018-05-26T18:09:06.347Z,42.70
2018-05-26T18:11:34.693Z,44.00
2018-05-26T18:14:03.026Z,46.30
2018-05-26T18:16:31.353Z,48.00
2018-05-26T18:18:59.716Z,49.30
2018-05-26T18:21:28.031Z,49.80
2018-05-26T18:23:56.367Z,50.10
2018-05-26T18:26:24.928Z,50.70
2018-05-26T18:28:53.266Z,51.20
2018-05-26T18:31:21.584Z,51.80
2018-05-26T18:33:49.931Z,52.80
2018-05-26T18:36:18.249Z,54.30
2018-05-26T18:38:46.583Z,55.70
2018-05-26T18:41:14.893Z,56.80
2018-05-26T18:43:42.651Z,56.80
2018-05-26T18:46:11.094Z,59.00
2018-05-26T18:48:39.556Z,59.90
2018-05-26T18:51:07.898Z,61.30
2018-05-26T18:53:36.258Z,62.50
2018-05-26T18:56:04.569Z,63.60
2018-05-26T18:58:32.914Z,64.60
2018-05-26T19:01:01.263Z,65.80
2018-05-26T19:03:29.627Z,67.00
2018-05-26T19:05:57.953Z,68.20
2018-05-26T19:08:26.293Z,69.50
2018-05-26T19:10:54.613Z,70.90
2018-05-26T19:13:23.120Z,72.00
2018-05-26T19:15:51.602Z,73.30
2018-05-26T19:18:19.971Z,74.40
2018-05-26T19:20:48.312Z,75.50
2018-05-26T19:23:16.916Z,76.30
2018-05-26T19:25:45.389Z,77.20
2018-05-26T19:28:13.709Z,77.80
2018-05-26T19:30:42.095Z,78.70
2018-05-26T19:33:10.514Z,79.30
2018-05-26T19:35:38.890Z,80.20
2018-05-26T19:38:07.216Z,80.90
2018-05-26T19:40:35.553Z,81.50
2018-05-26T19:43:03.913Z,81.70
2018-05-26T19:45:32.216Z,82.20
2018-05-26T19:48:00.527Z,82.90
2018-05-26T19:50:28.869Z,83.70
2018-05-26T19:52:57.178Z,84.20
2018-05-26T19:55:25.513Z,84.80
2018-05-26T19:57:53.825Z,84.90
2018-05-26T20:00:22.278Z,85.10
2018-05-26T20:02:50.596Z,85.50
2018-05-26T20:05:18.936Z,86.10
2018-05-26T20:07:47.645Z,86.50
2018-05-26T20:10:16.203Z,86.60
2018-05-26T20:12:44.528Z,86.70
2018-05-26T20:15:12.866Z,86.80
2018-05-26T20:17:41.185Z,86.30
2018-05-26T20:20:09.543Z,86.80
2018-05-26T20:22:37.864Z,86.50
2018-05-26T20:25:06.209Z,86.70
2018-05-26T20:27:34.640Z,86.80
2018-05-26T20:30:02.992Z,87.30
2018-05-26T20:32:31.498Z,87.10
2018-05-26T20:34:59.841Z,87.60
2018-05-26T20:37:28.178Z,87.60
2018-05-26T20:39:56.545Z,88.40
2018-05-26T20:42:24.859Z,88.90
2018-05-26T20:44:53.198Z,89.20
2018-05-26T20:47:21.513Z,89.30
2018-05-26T20:49:49.870Z,89.80
2018-05-26T20:52:18.197Z,89.90
2018-05-26T20:54:46.525Z,89.60
2018-05-26T20:57:14.871Z,89.30
2018-05-26T20:59:43.182Z,89.50
2018-05-26T21:02:11.524Z,90.00
2018-05-26T21:04:39.858Z,90.10
2018-05-26T21:07:08.196Z,90.20
2018-05-26T21:09:36.518Z,90.40
2018-05-26T21:12:04.863Z,90.20
2018-05-26T21:14:33.181Z,90.00
2018-05-26T21:17:01.525Z,89.60
2018-05-26T21:19:29.847Z,89.90
2018-05-26T21:21:58.182Z,90.40
2018-05-26T21:24:26.503Z,90.60
2018-05-26T21:26:54.846Z,90.90
2018-05-26T21:29:23.161Z,90.60
2018-05-26T21:31:51.504Z,90.30
2018-05-26T21:34:19.818Z,90.10
2018-05-26T21:36:48.171Z,90.00
2018-05-26T21:39:16.489Z,90.00
2018-05-26T21:41:44.822Z,90.00
2018-05-26T21:44:13.146Z,90.00
2018-05-26T21:46:41.482Z,90.60
2018-05-26T21:49:09.797Z,90.40
2018-05-26T21:51:38.134Z,90.40
2018-05-26T21:54:06.448Z,90.30
2018-05-26T21:56:34.795Z,90.20
2018-05-26T21:59:02.357Z,90.20
2018-05-26T22:01:30.704Z,90.50
2018-05-26T22:03:59.033Z,90.60
2018-05-26T22:06:27.373Z,90.80
2018-05-26T22:08:55.690Z,90.80
2018-05-26T22:11:24.034Z,90.80
2018-05-26T22:13:52.350Z,90.90
2018-05-26T22:16:20.695Z,90.90
2018-05-26T22:18:49.019Z,91.10
2018-05-26T22:21:17.369Z,91.10
2018-05-26T22:23:45.687Z,91.30
2018-05-26T22:26:14.003Z,90.80
2018-05-26T22:28:42.337Z,90.70
2018-05-26T22:31:09.895Z,90.70
2018-05-26T22:33:38.239Z,90.90
2018-05-26T22:36:06.561Z,91.00
2018-05-26T22:38:34.939Z,91.10
2018-05-26T22:41:03.250Z,91.20
2018-05-26T22:43:31.590Z,91.20
2018-05-26T22:45:59.906Z,91.30
2018-05-26T22:48:28.258Z,91.40
2018-05-26T22:50:56.569Z,91.40
2018-05-26T22:53:24.905Z,91.40
2018-05-26T22:55:53.219Z,91.50
2018-05-26T22:58:21.559Z,91.60
2018-05-26T23:00:49.876Z,91.50
2018-05-26T23:03:18.216Z,91.40
2018-05-26T23:05:46.555Z,91.30
2018-05-26T23:08:14.904Z,91.30
2018-05-26T23:10:43.217Z,91.40
2018-05-26T23:13:11.565Z,91.50
2018-05-26T23:15:39.890Z,91.50
2018-05-26T23:18:08.205Z,91.50
2018-05-26T23:20:36.592Z,91.60
2018-05-26T23:23:04.890Z,91.70
2018-05-26T23:25:33.237Z,91.80
2018-05-26T23:28:01.562Z,91.80
2018-05-26T23:30:29.904Z,91.90
2018-05-26T23:32:58.222Z,92.10
2018-05-26T23:35:26.562Z,92.10
2018-05-26T23:37:54.885Z,92.30
2018-05-26T23:40:23.234Z,92.20
2018-05-26T23:42:51.545Z,92.20
2018-05-26T23:45:19.908Z,92.20
2018-05-26T23:47:48.225Z,92.50
2018-05-26T23:50:16.553Z,92.00
2018-05-26T23:52:44.869Z,92.20
2018-05-26T23:55:13.208Z,92.20
2018-05-26T23:57:41.530Z,92.20
